Time;durP1;ratioP1;P1;durP2;ratioP2;P2;SDS_P1;SDS_P2;PMS_P1;PMS_P2;Temp;Humidity;BMP_temperature;BMP_pressure;BME280_temperature;BME280_humidity;BME280_pressure;Samples;Min_cycle;Max_cycle;Signal;HPM_P1;HPM_P2
2021/11/18 00:00:15;;;;;;;31.92;12.48;;;8.10;99.90;;;5.98;100.00;101556.00;5026872;28;20088;-83
2021/11/18 00:02:44;;;;;;;36.10;12.68;;;8.10;99.90;;;5.99;100.00;101558.56;5030206;28;20056;-83
2021/11/18 00:05:13;;;;;;;35.85;13.05;;;8.10;99.90;;;5.99;100.00;101573.91;5029146;28;20108;-82
2021/11/18 00:07:44;;;;;;;36.38;13.43;;;8.20;99.90;;;5.96;100.00;101574.16;5029943;28;20041;-83
2021/11/18 00:10:12;;;;;;;29.55;12.32;;;8.10;99.90;;;5.93;100.00;101569.00;5028668;28;20053;-84
2021/11/18 00:12:41;;;;;;;32.05;12.77;;;8.20;99.90;;;5.94;100.00;101568.88;5029912;28;20049;-83
2021/11/18 00:15:10;;;;;;;41.08;13.75;;;8.10;99.90;;;5.96;100.00;101577.75;5028074;28;20116;-83
2021/11/18 00:17:39;;;;;;;31.58;12.88;;;8.20;99.90;;;5.96;100.00;101569.66;5027752;28;20049;-83
2021/11/18 00:20:09;;;;;;;28.33;12.05;;;8.20;99.90;;;5.96;100.00;101568.75;5027681;28;20045;-83
2021/11/18 00:22:37;;;;;;;39.33;12.90;;;8.10;99.90;;;5.94;100.00;101573.41;5028485;28;20038;-83
2021/11/18 00:25:06;;;;;;;36.03;13.23;;;8.10;99.90;;;5.89;100.00;101557.59;5027610;28;20095;-83
2021/11/18 00:27:33;;;;;;;34.30;12.48;;;8.10;99.90;;;5.87;100.00;101563.13;5027518;28;20041;-83
2021/11/18 00:30:01;;;;;;;32.47;12.80;;;8.10;99.90;;;5.88;100.00;101555.88;5021702;28;20144;-82
2021/11/18 00:32:28;;;;;;;33.72;14.00;;;8.10;99.90;;;5.90;100.00;101547.63;5026603;28;20243;-83
2021/11/18 00:34:58;;;;;;;34.05;12.80;;;8.10;99.90;;;5.89;100.00;101563.00;5026649;28;20113;-83
2021/11/18 00:37:25;;;;;;;34.58;12.60;;;8.20;99.90;;;5.90;100.00;101574.66;5032873;28;20045;-83
2021/11/18 00:39:53;;;;;;;46.22;13.27;;;8.10;99.90;;;5.93;100.00;101579.81;5010957;28;20048;-82
2021/11/18 00:42:21;;;;;;;30.27;13.35;;;8.10;99.90;;;5.86;100.00;101563.25;5026030;28;20757;-83
2021/11/18 00:44:48;;;;;;;36.00;13.32;;;8.10;99.90;;;5.85;100.00;101570.50;5042442;28;20448;-83
2021/11/18 00:47:18;;;;;;;29.70;12.65;;;8.10;99.90;;;5.88;100.00;101578.34;5040434;28;20045;-83
2021/11/18 00:49:45;;;;;;;36.60;13.65;;;8.10;99.90;;;5.91;100.00;101576.38;5026126;28;20056;-84
2021/11/18 00:52:14;;;;;;;34.95;12.88;;;8.10;99.90;;;5.89;100.00;101573.81;5028275;28;20120;-83
2021/11/18 00:54:45;;;;;;;45.83;14.90;;;8.10;99.90;;;5.82;100.00;101573.44;5026472;28;20546;-83
2021/11/18 00:57:13;;;;;;;36.90;14.85;;;8.10;99.90;;;5.78;100.00;101565.72;5025779;28;20700;-83
2021/11/18 00:59:40;;;;;;;38.63;15.18;;;8.10;99.90;;;5.79;100.00;101573.72;5034902;28;20037;-82
2021/11/18 01:02:09;;;;;;;35.55;13.48;;;8.10;99.90;;;5.79;100.00;101580.97;5017728;28;20044;-83
2021/11/18 01:04:37;;;;;;;37.30;15.57;;;8.10;99.90;;;5.80;100.00;101580.81;5027183;28;20104;-83
2021/11/18 01:07:04;;;;;;;35.17;14.45;;;8.10;99.90;;;5.78;100.00;101593.59;5026043;28;20045;-84
2021/11/18 01:09:34;;;;;;;42.65;14.52;;;8.10;99.90;;;5.77;100.00;101602.69;5026266;28;20045;-82
2021/11/18 01:12:01;;;;;;;35.55;14.70;;;8.00;99.90;;;5.75;100.00;101599.28;5040211;28;20050;-83
2021/11/18 01:14:30;;;;;;;44.75;15.38;;;8.00;99.90;;;5.75;100.00;101609.19;5039900;28;20038;-82
2021/11/18 01:16:59;;;;;;;44.05;16.00;;;8.00;99.90;;;5.75;100.00;101615.47;5027700;28;20478;-83
2021/11/18 01:19:28;;;;;;;45.20;15.02;;;8.10;99.90;;;5.69;100.00;101610.56;5020029;28;20057;-83
2021/11/18 01:22:01;;;;;;;37.67;14.80;;;8.00;99.90;;;5.65;100.00;101617.19;5027612;28;20049;-83
2021/11/18 01:24:35;;;;;;;32.20;14.55;;;8.00;99.90;;;5.68;100.00;101625.06;5029020;28;20104;-82
2021/11/18 01:27:32;;;;;;;42.55;16.05;;;8.00;99.90;;;5.64;100.00;101618.19;4994628;28;20054;-83
2021/11/18 01:30:15;;;;;;;46.63;16.00;;;8.00;99.90;;;5.58;100.00;101621.38;5024313;28;20050;-83
2021/11/18 01:32:44;;;;;;;40.22;16.27;;;7.90;99.90;;;5.55;100.00;101618.94;5011096;28;20041;-83
2021/11/18 01:35:13;;;;;;;36.88;16.40;;;8.00;99.90;;;5.48;100.00;101614.03;5027725;28;20052;-82
2021/11/18 01:37:40;;;;;;;37.58;16.27;;;7.90;99.90;;;5.54;100.00;101618.09;5027583;28;20054;-83
2021/11/18 01:40:17;;;;;;;48.92;16.17;;;7.90;99.90;;;5.56;100.00;101609.84;5044074;28;20054;-83
2021/11/18 01:42:45;;;;;;;38.95;16.73;;;7.90;99.90;;;5.53;100.00;101604.72;5057667;28;20371;-83
2021/11/18 01:45:13;;;;;;;38.63;16.52;;;7.90;99.90;;;5.55;100.00;101605.44;5027473;28;20065;-82
2021/11/18 01:47:41;;;;;;;35.60;16.95;;;7.80;99.90;;;5.55;100.00;101603.59;5027969;28;20132;-83
2021/11/18 01:50:15;;;;;;;36.85;16.02;;;7.80;99.90;;;5.53;100.00;101610.97;5027714;28;20056;-83
2021/11/18 01:52:45;;;;;;;41.90;15.45;;;7.80;99.90;;;5.52;100.00;101613.78;5028892;28;20531;-83
2021/11/18 01:55:16;;;;;;;37.28;15.73;;;7.80;99.90;;;5.51;100.00;101609.38;5028836;28;20044;-83
2021/11/18 01:57:44;;;;;;;;;;;7.80;99.90;;;5.47;100.00;101609.63;5027997;28;20072;-83
2021/11/18 02:00:36;;;;;;;44.20;16.80;;;7.80;99.90;;;5.51;100.00;101612.06;5028222;28;19925;-83
2021/11/18 02:03:05;;;;;;;50.08;17.05;;;7.80;99.90;;;5.50;100.00;101608.50;5024178;28;20053;-83
2021/11/18 02:06:00;;;;;;;36.28;15.75;;;7.80;99.90;;;5.42;100.00;101606.41;5009058;28;20046;-83
2021/11/18 02:08:29;;;;;;;48.97;15.57;;;7.80;99.90;;;5.41;100.00;101612.81;5023762;28;20053;-82
2021/11/18 02:11:25;;;;;;;39.30;15.57;;;7.80;99.90;;;5.37;100.00;101622.16;5007350;28;20042;-83
2021/11/18 02:13:54;;;;;;;37.60;15.57;;;7.80;99.90;;;5.42;100.00;101625.31;5018024;28;20042;-83
2021/11/18 02:16:22;;;;;;;43.22;15.95;;;7.80;99.90;;;5.44;100.00;101617.94;5026811;28;20083;-83
2021/11/18 02:18:50;;;;;;;47.25;17.58;;;7.80;99.90;;;5.48;100.00;101632.06;5027080;28;20068;-83
2021/11/18 02:21:20;;;;;;;44.53;16.95;;;7.80;99.90;;;5.47;100.00;101630.38;5044471;28;20034;-83
2021/11/18 02:23:52;;;;;;;41.53;16.60;;;7.80;99.90;;;5.49;100.00;101637.34;5028022;28;20049;-83
2021/11/18 02:26:22;;;;;;;38.03;15.57;;;7.80;99.90;;;5.45;100.00;101652.06;5028275;28;20136;-83
2021/11/18 02:28:53;;;;;;;32.05;14.05;;;7.80;99.90;;;5.43;100.00;101648.66;5031821;28;20486;-83
2021/11/18 02:31:30;;;;;;;32.42;14.20;;;7.80;99.90;;;5.39;100.00;101652.56;5031062;28;20521;-83
2021/11/18 02:34:00;;;;;;;41.20;14.93;;;7.70;99.90;;;5.38;100.00;101655.41;5030818;28;20076;-82
2021/11/18 02:36:29;;;;;;;42.15;14.25;;;7.70;99.90;;;5.35;100.00;101651.09;5030643;28;20095;-82
2021/11/18 02:38:56;;;;;;;51.20;17.13;;;7.70;99.90;;;5.33;100.00;101650.38;5030960;28;20050;-83
2021/11/18 02:41:24;;;;;;;36.90;15.30;;;7.70;99.90;;;5.36;100.00;101650.13;5031241;28;20080;-83
2021/11/18 02:43:52;;;;;;;47.95;16.50;;;7.70;99.90;;;5.33;100.00;101654.91;5031536;28;20068;-82
2021/11/18 02:46:21;;;;;;;44.13;15.30;;;7.60;99.90;;;5.35;100.00;101648.41;5031698;28;20042;-83
2021/11/18 02:48:49;;;;;;;46.33;15.63;;;7.60;99.90;;;5.38;100.00;101650.00;5030380;28;20056;-82
2021/11/18 02:51:23;;;;;;;39.53;14.50;;;7.60;99.90;;;5.41;100.00;101652.47;5031047;28;20073;-83
2021/11/18 02:53:56;;;;;;;35.78;14.65;;;7.70;99.90;;;5.39;100.00;101657.97;5030535;28;20073;-83
2021/11/18 02:56:24;;;;;;;48.15;16.33;;;7.70;99.90;;;5.37;100.00;101646.44;5063377;28;20238;-82
2021/11/18 02:58:51;;;;;;;40.75;14.50;;;7.70;99.90;;;5.40;100.00;101648.88;5029861;28;20049;-83
2021/11/18 03:01:22;;;;;;;48.60;16.30;;;7.70;99.90;;;5.35;100.00;101651.09;5030317;28;20080;-83
2021/11/18 03:03:51;;;;;;;48.70;16.15;;;7.70;99.90;;;5.35;100.00;101648.41;5043458;28;20076;-83
2021/11/18 03:06:20;;;;;;;39.80;14.73;;;7.70;99.90;;;5.35;100.00;101653.81;5011820;28;20046;-83
2021/11/18 03:08:48;;;;;;;48.22;16.50;;;7.70;99.90;;;5.37;100.00;101649.16;5010567;28;20050;-84
2021/11/18 03:11:26;;;;;;;49.33;15.63;;;7.70;99.90;;;5.38;100.00;101650.84;5011952;28;20462;-82
2021/11/18 03:13:55;;;;;;;42.25;14.52;;;7.70;99.90;;;5.40;100.00;101648.88;5011273;28;20160;-83
2021/11/18 03:16:25;;;;;;;40.55;15.10;;;7.70;99.90;;;5.37;100.00;101638.34;5026014;28;20041;-82
2021/11/18 03:18:52;;;;;;;35.85;13.73;;;7.70;99.90;;;5.31;100.00;101636.13;5029663;28;20045;-83
2021/11/18 03:21:24;;;;;;;40.35;14.35;;;7.70;99.90;;;5.32;100.00;101635.16;5030078;28;20123;-83
2021/11/18 03:23:57;;;;;;;45.53;15.68;;;7.60;99.90;;;5.32;100.00;101629.75;5030038;28;20536;-83
2021/11/18 03:26:30;;;;;;;38.55;14.80;;;7.60;99.90;;;5.37;100.00;101638.34;5029507;28;20148;-83
2021/11/18 03:29:08;;;;;;;54.47;16.55;;;7.60;99.90;;;5.34;100.00;101638.59;5029300;28;20119;-83
2021/11/18 03:31:36;;;;;;;50.05;16.20;;;7.60;99.90;;;5.34;100.00;101643.97;5030433;28;20055;-83
2021/11/18 03:34:09;;;;;;;41.45;15.10;;;7.70;99.90;;;5.34;100.00;101649.38;5029408;28;20426;-82
2021/11/18 03:36:39;;;;;;;47.22;15.48;;;7.60;99.90;;;5.32;100.00;101654.03;5030291;28;20578;-83
2021/11/18 03:39:10;;;;;;;36.78;14.25;;;7.70;99.90;;;5.28;100.00;101648.03;5030183;28;20053;-83
2021/11/18 03:41:46;;;;;;;44.03;16.45;;;7.70;99.90;;;5.31;100.00;101646.91;5054922;28;20045;-84
2021/11/18 03:44:15;;;;;;;45.60;15.30;;;7.60;99.90;;;5.28;100.00;101644.47;5029968;28;20228;-83
2021/11/18 03:46:47;;;;;;;45.85;16.30;;;7.70;99.90;;;5.23;100.00;101635.88;5042402;28;20116;-83
2021/11/18 03:49:16;;;;;;;62.90;16.15;;;7.60;99.90;;;5.21;100.00;101625.19;5026071;28;20069;-83
2021/11/18 03:51:49;;;;;;;55.25;16.92;;;7.60;99.90;;;5.19;100.00;101629.00;5009373;28;20057;-83
2021/11/18 03:54:21;;;;;;;46.55;16.38;;;7.60;99.90;;;5.24;100.00;101638.47;5026079;28;20084;-83
2021/11/18 03:56:51;;;;;;;52.28;17.77;;;7.60;99.90;;;5.21;100.00;101651.34;5025668;28;20042;-83
2021/11/18 03:59:23;;;;;;;61.03;16.90;;;7.60;99.90;;;5.21;100.00;101648.63;5008650;28;20168;-83
2021/11/18 04:01:54;;;;;;;45.72;15.50;;;7.60;99.90;;;5.24;100.00;101653.81;5025575;28;20046;-83
2021/11/18 04:04:27;;;;;;;71.38;17.83;;;7.60;99.90;;;5.21;100.00;101665.69;5009300;28;20569;-84
2021/11/18 04:06:55;;;;;;;52.50;16.00;;;7.60;99.90;;;5.22;100.00;101671.97;5009589;28;20054;-83
2021/11/18 04:09:23;;;;;;;51.47;17.02;;;7.60;99.90;;;5.23;100.00;101676.34;5016957;28;20071;-83
2021/11/18 04:11:59;;;;;;;48.83;16.48;;;7.60;99.90;;;5.27;100.00;101686.81;5028546;28;20076;-83
2021/11/18 04:14:29;;;;;;;49.65;15.80;;;7.60;99.90;;;5.31;100.00;101679.31;5028544;28;20092;-83
2021/11/18 04:16:57;;;;;;;47.78;16.08;;;7.50;99.90;;;5.27;100.00;101683.22;5061636;28;20045;-83
2021/11/18 04:19:25;;;;;;;44.17;15.23;;;7.60;99.90;;;5.33;100.00;101684.59;5029412;28;20058;-83
2021/11/18 04:21:56;;;;;;;55.08;16.63;;;7.50;99.90;;;5.35;100.00;101688.91;5029841;28;20581;-82
2021/11/18 04:24:28;;;;;;;63.00;16.60;;;7.50;99.90;;;5.37;100.00;101696.84;5029968;28;20096;-82
2021/11/18 04:26:57;;;;;;;53.38;17.02;;;7.50;99.90;;;5.35;100.00;101696.13;5029422;28;20099;-83
2021/11/18 04:29:28;;;;;;;57.08;15.45;;;7.50;99.90;;;5.34;100.00;101692.56;5029644;28;20073;-82
2021/11/18 04:32:02;;;;;;;68.97;17.63;;;7.50;99.90;;;5.34;100.00;101692.56;5029283;28;20115;-83
2021/11/18 04:34:30;;;;;;;62.25;17.70;;;7.60;99.90;;;5.36;100.00;101684.34;5030244;28;20046;-83
2021/11/18 04:36:57;;;;;;;48.63;16.42;;;7.60;99.90;;;5.35;100.00;101679.91;5052215;22;20052;-86
2021/11/18 04:39:26;;;;;;;61.30;18.10;;;7.60;99.90;;;5.34;100.00;101679.06;5064048;28;20045;-86
2021/11/18 04:41:54;;;;;;;53.00;16.90;;;7.70;99.90;;;5.37;100.00;101681.53;5047977;28;20076;-86
2021/11/18 04:44:23;;;;;;;54.80;16.38;;;7.60;99.90;;;5.37;100.00;101673.44;5049292;28;20041;-86
2021/11/18 04:46:57;;;;;;;77.35;18.92;;;7.60;99.90;;;5.32;100.00;101672.94;5038628;28;20127;-86
2021/11/18 04:49:25;;;;;;;66.30;19.52;;;7.60;99.90;;;5.34;100.00;101670.97;5027431;28;20153;-86
2021/11/18 04:51:53;;;;;;;50.15;16.98;;;7.60;99.90;;;5.38;100.00;101677.84;5030552;28;20056;-86
2021/11/18 04:54:20;;;;;;;57.35;18.83;;;7.80;99.90;;;5.40;100.00;101681.28;5028034;28;20061;-86
2021/11/18 04:56:48;;;;;;;63.75;18.58;;;7.60;99.90;;;5.41;100.00;101661.41;5027948;28;20144;-85
2021/11/18 04:59:15;;;;;;;60.53;17.75;;;7.60;99.90;;;5.43;100.00;101664.84;5026985;28;20498;-86
2021/11/18 05:01:45;;;;;;;60.38;18.25;;;7.60;99.90;;;5.43;100.00;101669.41;5027678;28;20052;-85
2021/11/18 05:04:13;;;;;;;54.00;18.20;;;7.70;99.90;;;5.47;100.00;101677.09;5027678;28;20058;-85
2021/11/18 05:06:40;;;;;;;52.65;18.02;;;7.70;99.90;;;5.48;100.00;101664.47;5043973;28;20103;-86
2021/11/18 05:09:09;;;;;;;60.53;18.80;;;7.70;99.90;;;5.56;100.00;101674.66;5028327;28;20068;-86
2021/11/18 05:11:40;;;;;;;61.08;18.58;;;7.70;99.90;;;5.57;100.00;101666.44;5027694;28;20057;-86
2021/11/18 05:14:09;;;;;;;56.83;17.88;;;7.70;99.90;;;5.61;100.00;101653.53;5027755;28;20407;-87
2021/11/18 05:16:44;;;;;;;57.97;17.45;;;7.70;99.90;;;5.61;100.00;101646.28;5020994;28;20064;-89
2021/11/18 05:19:16;;;;;;;56.15;17.75;;;7.80;99.90;;;5.65;100.00;101657.69;5006983;28;20046;-89
2021/11/18 05:21:43;;;;;;;;;;;7.80;99.90;;;5.65;100.00;101657.69;5022729;28;20057;-88
2021/11/18 05:24:13;;;;;;;65.78;17.42;;;7.80;99.90;;;5.67;100.00;101647.63;5028729;28;19921;-91
2021/11/18 05:26:40;;;;;;;56.58;17.83;;;7.80;99.90;;;5.68;100.00;101652.06;5028507;28;20323;-90
2021/11/18 05:29:08;;;;;;;48.53;16.65;;;7.80;99.90;;;5.72;100.00;101644.56;5028509;28;20524;-93
2021/11/18 05:31:35;;;;;;;57.72;19.08;;;7.90;99.90;;;5.76;100.00;101644.19;5037012;28;20061;-89
2021/11/18 05:34:14;;;;;;;54.85;16.88;;;7.90;99.90;;;5.84;100.00;101649.81;5028818;28;20041;-89
2021/11/18 05:36:42;;;;;;;56.03;17.70;;;7.90;99.90;;;5.79;100.00;101648.50;5028032;28;20038;-90
2021/11/18 05:39:09;;;;;;;52.10;18.15;;;7.90;99.90;;;5.81;100.00;101651.94;5027521;28;20049;-90
2021/11/18 05:41:46;;;;;;;58.67;18.60;;;7.90;99.90;;;5.79;100.00;101654.75;5052975;28;20428;-91
2021/11/18 05:44:13;;;;;;;61.95;18.65;;;7.90;99.90;;;5.80;100.00;101663.72;5026617;28;20073;-90
2021/11/18 05:46:41;;;;;;;56.63;17.42;;;7.90;99.90;;;5.78;100.00;101657.56;5025925;28;20045;-91
2021/11/18 05:49:10;;;;;;;57.20;18.63;;;7.90;99.90;;;5.83;100.00;101658.06;5009217;28;20049;-89
2021/11/18 05:55:41;;;;;;;56.40;17.08;;;8.00;99.90;;;5.82;100.00;101654.47;4941221;28;20050;-93
2021/11/18 06:02:15;;;;;;;67.07;19.30;;;8.00;99.90;;;5.93;100.00;101680.63;5013128;28;20044;-91
2021/11/18 06:04:45;;;;;;;48.25;16.75;;;8.00;99.90;;;5.90;100.00;101680.88;5021712;28;20042;-93
2021/11/18 06:14:58;;;;;;;;;;;;;;;;;;;;;
2021/11/18 06:17:26;;;;;;;58.70;18.48;;;8.10;99.90;;;5.92;100.00;101692.44;5015861;28;20050;-93
2021/11/18 06:20:13;;;;;;;54.90;18.23;;;8.10;99.90;;;5.93;100.00;101699.53;5031617;28;20065;-93
2021/11/18 06:22:46;;;;;;;53.53;18.35;;;8.10;99.90;;;5.94;100.00;101700.38;5034126;28;20422;-94
2021/11/18 06:25:20;;;;;;;52.88;18.08;;;8.10;99.90;;;5.93;100.00;101693.28;5014269;28;20045;-93
2021/11/18 06:27:51;;;;;;;54.92;18.98;;;8.10;99.90;;;6.02;100.00;101703.38;5025035;28;20635;-88
2021/11/18 06:30:23;;;;;;;51.22;17.02;;;8.10;99.90;;;6.01;100.00;101696.25;5021229;28;20506;-93
2021/11/18 06:32:51;;;;;;;46.85;17.33;;;8.10;99.90;;;6.02;100.00;101693.41;5032695;28;20399;-89
2021/11/18 06:38:39;;;;;;;49.55;17.02;;;8.20;99.90;;;6.09;100.00;101699.16;5029484;28;20111;-90
2021/11/18 06:41:29;;;;;;;48.35;17.23;;;8.20;99.90;;;6.06;100.00;101699.44;5032900;28;20056;-91
2021/11/18 06:44:14;;;;;;;47.95;18.00;;;8.20;99.90;;;6.09;100.00;101709.97;5031924;28;20529;-92
2021/11/18 06:46:42;;;;;;;55.58;17.10;;;8.20;99.90;;;6.11;100.00;101708.03;5024036;28;20540;-91
2021/11/18 06:50:31;;;;;;;52.47;16.92;;;8.20;99.90;;;6.11;100.00;101713.44;5025904;28;20041;-92
2021/11/18 06:53:05;;;;;;;63.30;17.67;;;8.20;99.90;;;6.17;100.00;101701.22;5031338;28;20421;-91
2021/11/18 06:55:50;;;;;;;49.92;16.73;;;8.20;99.90;;;6.14;100.00;101688.84;5026937;28;20128;-92
2021/11/18 06:58:20;;;;;;;57.03;18.02;;;8.30;99.90;;;6.18;100.00;101705.66;5030952;28;20044;-90
2021/11/18 07:00:56;;;;;;;54.90;16.92;;;8.20;99.90;;;6.13;100.00;101706.06;5032769;28;20046;-92
2021/11/18 07:03:25;;;;;;;45.58;17.35;;;8.20;99.90;;;6.11;100.00;101708.03;5048780;28;20070;-90
2021/11/18 07:05:53;;;;;;;50.55;17.50;;;8.20;99.90;;;6.11;100.00;101713.44;5047573;28;20149;-90
2021/11/18 07:08:21;;;;;;;48.47;16.38;;;8.30;99.90;;;6.17;100.00;101712.94;5029626;28;20121;-90
2021/11/18 07:10:51;;;;;;;45.38;16.00;;;8.30;99.90;;;6.16;100.00;101711.19;5030907;28;20056;-90
2021/11/18 07:13:22;;;;;;;50.15;16.70;;;8.30;99.90;;;6.16;100.00;101718.47;5031710;28;20030;-90
2021/11/18 07:16:00;;;;;;;46.80;15.95;;;8.30;99.90;;;6.14;100.00;101718.56;5044256;28;20073;-90
2021/11/18 07:18:31;;;;;;;57.17;17.65;;;8.30;99.90;;;6.19;100.00;101732.59;5046132;28;20092;-90
2021/11/18 07:20:59;;;;;;;49.67;16.58;;;8.30;99.90;;;6.20;100.00;101728.88;5030594;28;20045;-91
2021/11/18 07:23:30;;;;;;;55.58;17.63;;;8.30;99.90;;;6.22;100.00;101740.41;5028299;28;20056;-90
2021/11/18 07:26:01;;;;;;;48.35;16.95;;;8.30;99.90;;;6.26;100.00;101736.50;5026739;28;20034;-90
2021/11/18 07:28:33;;;;;;;43.83;16.33;;;8.30;99.90;;;6.29;100.00;101748.03;5045505;28;20088;-93
2021/11/18 07:31:01;;;;;;;46.55;16.63;;;8.30;99.90;;;6.32;100.00;101736.97;5031322;28;20079;-92
2021/11/18 07:33:34;;;;;;;49.17;16.38;;;8.30;99.90;;;6.31;100.00;101736.13;5028851;28;20060;-91
2021/11/18 07:36:01;;;;;;;49.78;16.20;;;8.40;99.90;;;6.30;100.00;101744.34;5029858;28;20418;-90
2021/11/18 07:38:31;;;;;;;50.20;17.30;;;8.40;99.90;;;6.30;100.00;101733.53;5044947;28;20065;-90
2021/11/18 07:41:06;;;;;;;47.50;15.60;;;8.40;99.90;;;6.35;100.00;101747.53;5033414;28;20053;-92
2021/11/18 07:43:38;;;;;;;48.88;16.42;;;8.40;99.90;;;6.36;100.00;101741.13;5046317;28;20088;-90
2021/11/18 07:46:44;;;;;;;57.05;17.23;;;8.40;99.90;;;6.38;100.00;101744.59;5011395;28;20042;-91
2021/11/18 07:49:15;;;;;;;52.88;17.98;;;8.40;99.90;;;6.34;100.00;101729.59;5025325;28;20045;-90
2021/11/18 07:51:44;;;;;;;49.78;17.95;;;8.40;99.90;;;6.31;100.00;101725.31;5025696;28;20129;-90
2021/11/18 07:54:16;;;;;;;49.65;16.85;;;8.40;99.90;;;6.40;100.00;101734.50;5025704;28;20066;-90
2021/11/18 07:56:47;;;;;;;53.03;17.02;;;8.40;99.90;;;6.44;100.00;101730.56;5029521;28;20042;-90
2021/11/18 07:59:16;;;;;;;62.33;18.95;;;8.50;99.90;;;6.43;100.00;101735.06;5029144;28;20037;-92
2021/11/18 08:01:46;;;;;;;49.00;16.70;;;8.50;99.90;;;6.39;100.00;101717.41;5047037;28;20509;-92
2021/11/18 08:04:16;;;;;;;56.78;17.83;;;8.50;99.90;;;6.46;100.00;101742.09;5046825;28;20091;-91
2021/11/18 08:06:47;;;;;;;53.88;17.50;;;8.50;99.90;;;6.45;100.00;101729.56;5046141;28;20046;-91
2021/11/18 08:09:15;;;;;;;52.85;17.52;;;8.50;99.90;;;6.46;100.00;101740.25;5030321;28;20033;-91
2021/11/18 08:11:51;;;;;;;48.20;17.48;;;8.50;99.90;;;6.53;100.00;101755.94;5029855;28;20414;-90
2021/11/18 08:14:20;;;;;;;52.67;17.35;;;8.50;99.90;;;6.58;100.00;101754.59;5018263;28;20045;-90
2021/11/18 08:16:52;;;;;;;46.67;16.83;;;8.60;99.90;;;6.59;100.00;101763.59;5026046;28;20093;-92
2021/11/18 08:19:21;;;;;;;46.40;16.13;;;8.60;99.90;;;6.65;100.00;101766.63;5009658;28;20070;-92
2021/11/18 08:21:53;;;;;;;50.00;16.50;;;8.60;99.90;;;6.65;100.00;101769.31;5009764;28;20510;-91
2021/11/18 08:24:25;;;;;;;44.13;16.42;;;8.60;99.90;;;6.74;100.00;101766.81;5040290;28;20502;-91
2021/11/18 08:26:57;;;;;;;56.13;15.98;;;8.60;99.90;;;6.80;100.00;101775.31;5028802;28;20417;-91
2021/11/18 08:29:28;;;;;;;49.75;15.82;;;8.70;99.90;;;6.86;100.00;101784.75;5028371;28;20049;-91
2021/11/18 08:31:59;;;;;;;48.60;15.93;;;8.70;99.90;;;6.85;100.00;101780.31;5046443;28;20050;-91
2021/11/18 08:34:33;;;;;;;45.00;15.52;;;8.80;99.90;;;6.84;100.00;101789.44;5025071;28;20041;-92
2021/11/18 08:37:07;;;;;;;52.00;15.48;;;8.80;99.90;;;6.85;100.00;101799.25;5029608;28;20150;-91
2021/11/18 08:39:38;;;;;;;38.10;15.23;;;8.80;99.90;;;6.80;100.00;101796.09;5028583;28;20049;-90
2021/11/18 08:42:13;;;;;;;45.70;15.93;;;8.80;99.90;;;6.70;100.00;101777.06;5028352;28;20051;-90
2021/11/18 08:44:42;;;;;;;43.33;15.23;;;8.80;99.90;;;6.75;100.00;101788.34;5026182;28;20045;-91
2021/11/18 08:47:13;;;;;;;42.65;15.30;;;8.80;99.90;;;6.77;100.00;101782.81;5040957;28;20100;-90
2021/11/18 08:49:41;;;;;;;46.97;16.17;;;8.80;99.90;;;6.75;100.00;101779.38;5008982;28;20050;-92
2021/11/18 08:52:14;;;;;;;51.10;15.73;;;8.80;99.90;;;6.78;100.00;101787.25;5012715;28;20049;-91
2021/11/18 08:54:54;;;;;;;48.58;15.90;;;8.80;99.90;;;6.83;100.00;101796.69;5027982;28;20045;-90
2021/11/18 08:57:25;;;;;;;47.17;15.93;;;8.90;99.90;;;6.88;100.00;101796.31;5028622;28;20056;-90
2021/11/18 09:00:36;;;;;;;46.85;15.20;;;8.80;99.90;;;6.90;100.00;101788.91;5023533;28;20045;-91
2021/11/18 09:03:18;;;;;;;50.40;15.15;;;8.90;99.90;;;6.86;100.00;101787.47;5039199;28;20483;-90
2021/11/18 09:05:48;;;;;;;43.90;16.08;;;8.90;99.90;;;6.87;100.00;101794.56;5027276;28;20053;-92
2021/11/18 09:08:17;;;;;;;49.85;15.75;;;8.90;99.90;;;6.88;100.00;101788.19;5027832;28;20046;-91
2021/11/18 09:10:52;;;;;;;39.80;13.85;;;8.90;99.90;;;6.94;100.00;101790.38;5025200;28;20084;-90
2021/11/18 09:13:22;;;;;;;40.88;15.30;;;8.90;99.90;;;6.98;100.00;101789.13;5024420;28;20041;-90
2021/11/18 09:15:52;;;;;;;40.50;15.40;;;9.00;99.90;;;7.01;100.00;101790.72;5023127;28;20402;-89
2021/11/18 09:18:20;;;;;;;42.13;15.75;;;8.90;99.90;;;7.03;100.00;101786.03;5024612;28;20065;-90
2021/11/18 09:20:53;;;;;;;51.38;15.55;;;8.90;99.90;;;7.07;100.00;101786.63;5016851;28;20128;-93
2021/11/18 09:23:26;;;;;;;43.22;15.95;;;8.90;99.90;;;7.13;100.00;101796.94;5040023;28;20057;-90
2021/11/18 09:25:54;;;;;;;42.95;15.25;;;9.00;99.90;;;7.16;100.00;101799.38;5045645;28;20070;-92
2021/11/18 09:28:26;;;;;;;33.80;14.07;;;9.10;99.90;;;7.20;100.00;101800.84;5028608;28;20087;-91
2021/11/18 09:31:30;;;;;;;48.22;15.48;;;9.10;99.90;;;7.26;100.00;101800.31;4973071;28;20507;-91
2021/11/18 09:34:00;;;;;;;38.22;14.98;;;9.10;99.90;;;7.25;100.00;101798.59;5003425;28;20065;-94
2021/11/18 09:36:31;;;;;;;45.85;14.70;;;9.10;99.90;;;7.23;100.00;101787.91;5042702;28;20049;-92
2021/11/18 09:39:01;;;;;;;43.90;14.98;;;9.20;99.90;;;7.32;100.00;101794.38;5031763;28;20141;-91
2021/11/18 09:41:46;;;;;;;40.03;14.77;;;9.20;99.90;;;7.35;100.00;101795.94;5039735;28;20070;-93
2021/11/18 09:45:05;;;;;;;40.83;14.05;;;9.20;99.90;;;7.40;100.00;101791.84;5055341;28;20060;-90
2021/11/18 09:48:23;;;;;;;48.97;15.15;;;9.30;99.90;;;7.41;100.00;101790.88;5043323;28;20057;-93
2021/11/18 09:51:15;;;;;;;54.78;15.80;;;9.30;99.90;;;7.48;100.00;101809.28;5019862;28;20053;-90
2021/11/18 09:54:10;;;;;;;41.88;14.32;;;9.40;99.90;;;7.52;100.00;101797.19;5030003;28;20518;-91
2021/11/18 09:56:50;;;;;;;43.65;15.50;;;9.40;99.90;;;7.54;100.00;101811.47;5032173;28;20038;-92
2021/11/18 09:59:33;;;;;;;40.65;14.65;;;9.40;99.90;;;7.56;100.00;101809.50;5049469;28;20047;-91
2021/11/18 10:02:47;;;;;;;41.50;14.60;;;9.40;99.90;;;7.61;100.00;101801.81;5025879;28;20065;-92
2021/11/18 10:05:21;;;;;;;44.90;14.82;;;9.50;99.90;;;7.65;100.00;101814.09;5015109;28;20514;-92
2021/11/18 10:07:54;;;;;;;38.22;13.88;;;9.50;99.90;;;7.66;100.00;101815.84;5027207;28;20509;-92
2021/11/18 10:10:32;;;;;;;41.17;14.25;;;9.60;99.90;;;7.66;100.00;101821.25;5034561;28;20051;-93
2021/11/18 10:13:33;;;;;;;38.45;13.50;;;9.60;99.90;;;7.69;100.00;101826.41;5021075;28;20053;-92
2021/11/18 10:16:11;;;;;;;39.88;12.77;;;9.60;99.90;;;7.78;100.00;101813.91;5032252;28;20100;-92
2021/11/18 10:18:44;;;;;;;40.53;13.27;;;9.60;99.90;;;7.82;100.00;101810.81;5039935;28;20042;-91
2021/11/18 10:21:18;;;;;;;47.70;13.77;;;9.60;99.90;;;7.88;100.00;101805.81;5045883;28;20053;-92
2021/11/18 10:23:48;;;;;;;44.67;13.55;;;9.70;99.90;;;7.98;100.00;101814.88;5023750;28;20049;-92
2021/11/18 10:26:19;;;;;;;35.75;13.18;;;9.70;99.90;;;8.00;100.00;101791.19;5023366;28;20098;-94
2021/11/18 10:29:06;;;;;;;;;;;9.70;99.90;;;8.09;100.00;101801.22;5016077;28;20069;-92
2021/11/18 10:31:52;;;;;;;33.38;12.63;;;9.80;99.90;;;8.23;100.00;101805.41;5030634;28;19921;-91
2021/11/18 10:34:27;;;;;;;38.38;14.00;;;9.80;99.90;;;8.26;100.00;101801.53;5036377;28;20071;-90
2021/11/18 10:50:33;;;;;;;35.92;14.32;;;10.00;99.90;;;8.41;100.00;101821.84;5030082;28;20583;-91
2021/11/18 10:53:17;;;;;;;41.20;13.20;;;10.10;99.90;;;8.37;100.00;101820.44;5021545;28;20204;-91
2021/11/18 13:08:53;;;;;;;26.58;6.38;;;10.60;99.90;;;8.87;100.00;101714.56;5004805;28;20544;-92
2021/11/18 13:12:02;;;;;;;23.35;5.72;;;10.60;99.90;;;8.87;100.00;101709.13;5008983;28;20136;-93
2021/11/18 13:46:09;;;;;;;29.27;6.35;;;10.70;99.90;;;8.92;100.00;101687.81;5027065;28;20413;-90
2021/11/18 13:48:49;;;;;;;27.25;5.38;;;10.70;99.60;;;8.90;100.00;101673.53;5017267;28;20050;-90